SWA3317 KSLC-KOAK
Flight info
| Callsign | SWA3317 |
|---|---|
| Flight time | N/A |
| Altitude | 40000 |
| Route | DEZRT2 MVA RPARK OAKES3 |
| Aircraft | B738/M-SDE2E3FGHIRWXY/LB1 |
Departure
| Time | 2026-05-01 11:57 |
|---|---|
| Airport | Salt Lake City International Airport (KSLC) |
Arrival
| Time | N/A |
|---|---|
| Airport | San Francisco Bay Oakland International Airport (KOAK) |
| Time | Latitude | Longitude | Altitude | Speed | Heading |
|---|---|---|---|---|---|
| 2026-05-01 11:46 | 40.78842 | -111.98608 | 4230 ft | 0 kts | 354° |
| 2026-05-01 11:47 | 40.78833 | -111.98607 | 4230 ft | 1 kts | 354° |
| 2026-05-01 11:47 | 40.78821 | -111.98605 | 4229 ft | 2 kts | 354° |
| 2026-05-01 11:47 | 40.78805 | -111.98603 | 4229 ft | 2 kts | 354° |
| 2026-05-01 11:47 | 40.78791 | -111.98601 | 4229 ft | 2 kts | 14° |
| 2026-05-01 11:48 | 40.78780 | -111.98609 | 4229 ft | 2 kts | 56° |
| 2026-05-01 11:48 | 40.78774 | -111.98627 | 4230 ft | 2 kts | 82° |
| 2026-05-01 11:48 | 40.78773 | -111.98630 | 4230 ft | 0 kts | 86° |
| 2026-05-01 11:51 | 40.78774 | -111.98617 | 4229 ft | 6 kts | 86° |
| 2026-05-01 11:51 | 40.78779 | -111.98517 | 4232 ft | 16 kts | 87° |
| 2026-05-01 11:51 | 40.78785 | -111.98329 | 4233 ft | 26 kts | 87° |
| 2026-05-01 11:51 | 40.78794 | -111.98113 | 4234 ft | 21 kts | 87° |
| 2026-05-01 11:52 | 40.78801 | -111.97938 | 4237 ft | 17 kts | 87° |
| 2026-05-01 11:52 | 40.78807 | -111.97788 | 4237 ft | 16 kts | 87° |
| 2026-05-01 11:52 | 40.78793 | -111.97694 | 4236 ft | 12 kts | 140° |
| 2026-05-01 11:52 | 40.78693 | -111.97673 | 4238 ft | 17 kts | 176° |
| 2026-05-01 11:53 | 40.78549 | -111.97656 | 4235 ft | 25 kts | 174° |
| 2026-05-01 11:53 | 40.78370 | -111.97635 | 4230 ft | 27 kts | 175° |
| 2026-05-01 11:53 | 40.78186 | -111.97614 | 4230 ft | 25 kts | 174° |
| 2026-05-01 11:53 | 40.77999 | -111.97592 | 4253 ft | 28 kts | 175° |
| 2026-05-01 11:54 | 40.77875 | -111.97556 | 4253 ft | 17 kts | 147° |
| 2026-05-01 11:54 | 40.77782 | -111.97518 | 4256 ft | 13 kts | 176° |
| 2026-05-01 11:54 | 40.77682 | -111.97507 | 4258 ft | 16 kts | 175° |
| 2026-05-01 11:54 | 40.77556 | -111.97492 | 4257 ft | 21 kts | 175° |
| 2026-05-01 11:55 | 40.77471 | -111.97479 | 4256 ft | 5 kts | 160° |
| 2026-05-01 11:55 | 40.77450 | -111.97444 | 4256 ft | 5 kts | 105° |
| 2026-05-01 11:55 | 40.77457 | -111.97394 | 4255 ft | 6 kts | 59° |
| 2026-05-01 11:55 | 40.77479 | -111.97341 | 4254 ft | 6 kts | 81° |
| 2026-05-01 11:56 | 40.77501 | -111.97319 | 4254 ft | 0 kts | 354° |
| 2026-05-01 11:56 | 40.77503 | -111.97319 | 4255 ft | 2 kts | 354° |
| 2026-05-01 11:56 | 40.77706 | -111.97345 | 4256 ft | 66 kts | 355° |
| 2026-05-01 11:56 | 40.78414 | -111.97423 | 4234 ft | 135 kts | 355° |
| 2026-05-01 11:57 | 40.79549 | -111.97558 | 4292 ft | 187 kts | 356° |
| 2026-05-01 11:57 | 40.80447 | -111.97670 | 4677 ft | 199 kts | 355° |
| 2026-05-01 11:57 | 40.82193 | -111.98394 | 5909 ft | 198 kts | 328° |
| 2026-05-01 11:57 | 40.83236 | -111.99624 | 6511 ft | 208 kts | 310° |
| 2026-05-01 11:58 | 40.84045 | -112.01253 | 7003 ft | 218 kts | 296° |
| 2026-05-01 11:58 | 40.84634 | -112.03205 | 7194 ft | 243 kts | 291° |
| 2026-05-01 11:58 | 40.85992 | -112.07825 | 7781 ft | 289 kts | 292° |
| 2026-05-01 11:59 | 40.86728 | -112.10325 | 8508 ft | 296 kts | 292° |
| 2026-05-01 11:59 | 40.87474 | -112.12874 | 8906 ft | 299 kts | 292° |
| 2026-05-01 11:59 | 40.88120 | -112.15458 | 9625 ft | 297 kts | 278° |
| 2026-05-01 12:00 | 40.87950 | -112.21041 | 10755 ft | 327 kts | 266° |
| 2026-05-01 12:00 | 40.87787 | -112.24152 | 10998 ft | 350 kts | 267° |
| 2026-05-01 12:00 | 40.87150 | -112.30667 | 12446 ft | 362 kts | 251° |
| 2026-05-01 12:01 | 40.86126 | -112.33718 | 13343 ft | 365 kts | 244° |
| 2026-05-01 12:01 | 40.84981 | -112.36735 | 14140 ft | 370 kts | 244° |
| 2026-05-01 12:01 | 40.83823 | -112.39755 | 14886 ft | 375 kts | 243° |
| 2026-05-01 12:01 | 40.82641 | -112.42847 | 15700 ft | 378 kts | 243° |
| 2026-05-01 12:02 | 40.81455 | -112.45964 | 16514 ft | 382 kts | 244° |
| 2026-05-01 12:02 | 40.80264 | -112.49116 | 17310 ft | 386 kts | 244° |
| 2026-05-01 12:02 | 40.79063 | -112.52306 | 18083 ft | 391 kts | 244° |
| 2026-05-01 12:02 | 40.77850 | -112.55537 | 18770 ft | 395 kts | 244° |
| 2026-05-01 12:03 | 40.77038 | -112.57700 | 19229 ft | 397 kts | 244° |
| 2026-05-01 12:03 | 40.75805 | -112.60987 | 19935 ft | 400 kts | 244° |
| 2026-05-01 12:03 | 40.74565 | -112.64291 | 20616 ft | 404 kts | 244° |
| 2026-05-01 12:03 | 40.72904 | -112.68713 | 21507 ft | 408 kts | 244° |
| 2026-05-01 12:04 | 40.72050 | -112.70985 | 21969 ft | 410 kts | 244° |
| 2026-05-01 12:04 | 40.70792 | -112.74329 | 22626 ft | 413 kts | 244° |
| 2026-05-01 12:04 | 40.69509 | -112.77734 | 23248 ft | 417 kts | 244° |
| 2026-05-01 12:04 | 40.68211 | -112.81173 | 23843 ft | 420 kts | 244° |
| 2026-05-01 12:05 | 40.66904 | -112.84634 | 24379 ft | 422 kts | 244° |
| 2026-05-01 12:05 | 40.64282 | -112.91564 | 25461 ft | 426 kts | 244° |
| 2026-05-01 12:05 | 40.62956 | -112.95064 | 25975 ft | 428 kts | 244° |
| 2026-05-01 12:06 | 40.61620 | -112.98583 | 26482 ft | 431 kts | 244° |
| 2026-05-01 12:06 | 40.60275 | -113.02123 | 26973 ft | 433 kts | 245° |
| 2026-05-01 12:06 | 40.58920 | -113.05687 | 27456 ft | 436 kts | 245° |
| 2026-05-01 12:06 | 40.57557 | -113.09266 | 27926 ft | 438 kts | 245° |
| 2026-05-01 12:07 | 40.56183 | -113.12869 | 28387 ft | 440 kts | 245° |
| 2026-05-01 12:07 | 40.54824 | -113.16427 | 28844 ft | 442 kts | 245° |
| 2026-05-01 12:07 | 40.53438 | -113.20053 | 29272 ft | 444 kts | 245° |
| 2026-05-01 12:07 | 40.52046 | -113.23690 | 29688 ft | 446 kts | 245° |
| 2026-05-01 12:08 | 40.50646 | -113.27344 | 30093 ft | 449 kts | 245° |
| 2026-05-01 12:08 | 40.49236 | -113.31019 | 30421 ft | 451 kts | 245° |
| 2026-05-01 12:08 | 40.47817 | -113.34714 | 30739 ft | 453 kts | 245° |
| 2026-05-01 12:08 | 40.46407 | -113.38380 | 31083 ft | 454 kts | 245° |
| 2026-05-01 12:09 | 40.44981 | -113.42081 | 31519 ft | 452 kts | 245° |
| 2026-05-01 12:09 | 40.43560 | -113.45761 | 32050 ft | 448 kts | 246° |
| 2026-05-01 12:09 | 40.42156 | -113.49394 | 32589 ft | 445 kts | 246° |
| 2026-05-01 12:09 | 40.40755 | -113.53017 | 33003 ft | 444 kts | 246° |
| 2026-05-01 12:10 | 40.39371 | -113.56593 | 33353 ft | 445 kts | 246° |
| 2026-05-01 12:10 | 40.36571 | -113.63817 | 34186 ft | 442 kts | 246° |
| 2026-05-01 12:10 | 40.35177 | -113.67405 | 34524 ft | 442 kts | 246° |
| 2026-05-01 12:11 | 40.32374 | -113.74611 | 35014 ft | 445 kts | 246° |
| 2026-05-01 12:11 | 40.30964 | -113.78230 | 35295 ft | 445 kts | 246° |
| 2026-05-01 12:11 | 40.29549 | -113.81853 | 35595 ft | 445 kts | 246° |
| 2026-05-01 12:12 | 40.28158 | -113.85413 | 35864 ft | 445 kts | 246° |
| 2026-05-01 12:12 | 40.26737 | -113.89045 | 36130 ft | 446 kts | 246° |
| 2026-05-01 12:12 | 40.25317 | -113.92670 | 36415 ft | 446 kts | 246° |
| 2026-05-01 12:12 | 40.23911 | -113.96255 | 36694 ft | 447 kts | 246° |
| 2026-05-01 12:13 | 40.22486 | -113.99882 | 36964 ft | 447 kts | 246° |
| 2026-05-01 12:13 | 40.21064 | -114.03500 | 37216 ft | 448 kts | 246° |
| 2026-05-01 12:13 | 40.19630 | -114.07141 | 37463 ft | 448 kts | 246° |
| 2026-05-01 12:13 | 40.18199 | -114.10770 | 37761 ft | 448 kts | 246° |
| 2026-05-01 12:14 | 40.16791 | -114.14338 | 38034 ft | 448 kts | 246° |
| 2026-05-01 12:14 | 40.15356 | -114.17970 | 38247 ft | 449 kts | 246° |
| 2026-05-01 12:14 | 40.13918 | -114.21607 | 38482 ft | 450 kts | 246° |
| 2026-05-01 12:14 | 40.12478 | -114.25244 | 38737 ft | 450 kts | 246° |
| 2026-05-01 12:15 | 40.11039 | -114.28871 | 38956 ft | 449 kts | 246° |
| 2026-05-01 12:15 | 40.09602 | -114.32490 | 39190 ft | 448 kts | 246° |
| 2026-05-01 12:15 | 40.08165 | -114.36105 | 39430 ft | 447 kts | 246° |
| 2026-05-01 12:15 | 40.06748 | -114.39665 | 39619 ft | 447 kts | 246° |
| 2026-05-01 12:16 | 40.05317 | -114.43255 | 39860 ft | 445 kts | 246° |
| 2026-05-01 12:16 | 40.03885 | -114.46844 | 40093 ft | 444 kts | 246° |
| 2026-05-01 12:16 | 40.01008 | -114.54047 | 40103 ft | 448 kts | 246° |
| 2026-05-01 12:17 | 39.98130 | -114.61229 | 40108 ft | 443 kts | 246° |
| 2026-05-01 12:17 | 39.95285 | -114.68312 | 40101 ft | 441 kts | 246° |
| 2026-05-01 12:18 | 39.92451 | -114.75354 | 40102 ft | 440 kts | 246° |
| 2026-05-01 12:18 | 39.89608 | -114.82403 | 40100 ft | 438 kts | 246° |
| 2026-05-01 12:19 | 39.86765 | -114.89434 | 40104 ft | 438 kts | 246° |
| 2026-05-01 12:19 | 39.83929 | -114.96432 | 40109 ft | 439 kts | 246° |
| 2026-05-01 12:20 | 39.81068 | -115.03476 | 40072 ft | 440 kts | 246° |
| 2026-05-01 12:20 | 39.78196 | -115.10532 | 40088 ft | 441 kts | 246° |
| 2026-05-01 12:21 | 39.75330 | -115.17554 | 40086 ft | 442 kts | 246° |
| 2026-05-01 12:21 | 39.72432 | -115.24639 | 40094 ft | 443 kts | 246° |
| 2026-05-01 12:22 | 39.69544 | -115.31681 | 40092 ft | 444 kts | 246° |
| 2026-05-01 12:22 | 39.66627 | -115.38778 | 40087 ft | 445 kts | 247° |
| 2026-05-01 12:23 | 39.63709 | -115.45862 | 40083 ft | 444 kts | 247° |
| 2026-05-01 12:23 | 39.60789 | -115.52931 | 40088 ft | 443 kts | 246° |
| 2026-05-01 12:24 | 39.57894 | -115.59928 | 40071 ft | 442 kts | 246° |
| 2026-05-01 12:24 | 39.54986 | -115.66937 | 40074 ft | 440 kts | 247° |
| 2026-05-01 12:25 | 39.50634 | -115.77400 | 40072 ft | 438 kts | 247° |
| 2026-05-01 12:26 | 39.47756 | -115.84300 | 40072 ft | 437 kts | 247° |
| 2026-05-01 12:26 | 39.43426 | -115.94652 | 40076 ft | 435 kts | 247° |
| 2026-05-01 12:27 | 39.39102 | -116.04956 | 40081 ft | 433 kts | 247° |
| 2026-05-01 12:28 | 39.34793 | -116.15191 | 40081 ft | 434 kts | 247° |
| 2026-05-01 12:29 | 39.30464 | -116.25441 | 40067 ft | 435 kts | 247° |
| 2026-05-01 12:29 | 39.26110 | -116.35717 | 40064 ft | 435 kts | 247° |
| 2026-05-01 12:30 | 39.21854 | -116.45994 | 40066 ft | 433 kts | 248° |
| 2026-05-01 12:31 | 39.19072 | -116.52902 | 40068 ft | 434 kts | 249° |
| 2026-05-01 12:31 | 39.16276 | -116.59814 | 40059 ft | 434 kts | 249° |
| 2026-05-01 12:32 | 39.13486 | -116.66668 | 40057 ft | 434 kts | 249° |
| 2026-05-01 12:32 | 39.09398 | -116.76670 | 40068 ft | 433 kts | 249° |
| 2026-05-01 12:33 | 39.06589 | -116.83525 | 40063 ft | 433 kts | 249° |
| 2026-05-01 12:33 | 39.03776 | -116.90376 | 40058 ft | 432 kts | 249° |
| 2026-05-01 12:34 | 39.00966 | -116.97200 | 40058 ft | 431 kts | 249° |
| 2026-05-01 12:34 | 38.98175 | -117.03967 | 40060 ft | 430 kts | 249° |
| 2026-05-01 12:35 | 38.95361 | -117.10772 | 40064 ft | 429 kts | 249° |
| 2026-05-01 12:35 | 38.92573 | -117.17502 | 40023 ft | 428 kts | 249° |
| 2026-05-01 12:36 | 38.89779 | -117.24228 | 40041 ft | 426 kts | 249° |
| 2026-05-01 12:36 | 38.86987 | -117.30941 | 40050 ft | 426 kts | 249° |
| 2026-05-01 12:37 | 38.84191 | -117.37646 | 40056 ft | 425 kts | 249° |
| 2026-05-01 12:37 | 38.81412 | -117.44297 | 40043 ft | 424 kts | 249° |
| 2026-05-01 12:38 | 38.78625 | -117.50949 | 40039 ft | 422 kts | 249° |
| 2026-05-01 12:38 | 38.75845 | -117.57573 | 40044 ft | 420 kts | 249° |
| 2026-05-01 12:39 | 38.73088 | -117.64131 | 40035 ft | 420 kts | 249° |
| 2026-05-01 12:39 | 38.70307 | -117.70732 | 40036 ft | 420 kts | 249° |
| 2026-05-01 12:40 | 38.67530 | -117.77307 | 40034 ft | 419 kts | 249° |
| 2026-05-01 12:40 | 38.64773 | -117.83822 | 40039 ft | 419 kts | 249° |
| 2026-05-01 12:41 | 38.61989 | -117.90390 | 40032 ft | 419 kts | 249° |
| 2026-05-01 12:41 | 38.59203 | -117.96950 | 40030 ft | 419 kts | 249° |
| 2026-05-01 12:42 | 38.56392 | -118.03452 | 40029 ft | 422 kts | 245° |
| 2026-05-01 12:42 | 38.52834 | -118.09509 | 40006 ft | 428 kts | 239° |
| 2026-05-01 12:43 | 38.49102 | -118.15459 | 40027 ft | 428 kts | 239° |
| 2026-05-01 12:43 | 38.45394 | -118.21426 | 40034 ft | 428 kts | 239° |
| 2026-05-01 12:44 | 38.41701 | -118.27417 | 40049 ft | 429 kts | 239° |
| 2026-05-01 12:45 | 38.34347 | -118.39351 | 40063 ft | 429 kts | 239° |
| 2026-05-01 12:45 | 38.30647 | -118.45334 | 40064 ft | 429 kts | 239° |
| 2026-05-01 12:46 | 38.26967 | -118.51277 | 40054 ft | 429 kts | 239° |
| 2026-05-01 12:46 | 38.23263 | -118.57248 | 40047 ft | 429 kts | 239° |
| 2026-05-01 12:47 | 38.19556 | -118.63213 | 40022 ft | 429 kts | 239° |
| 2026-05-01 12:47 | 38.16114 | -118.68742 | 40047 ft | 427 kts | 239° |